sensor_id;sensor_type;location;lat;lon;timestamp;P1;durP1;ratioP1;P2;durP2;ratioP2
53666;SDS011;39568;51.026;5.468;2022-07-19T00:01:14;5.25;;;2.03;;
53666;SDS011;39568;51.026;5.468;2022-07-19T00:03:41;6.90;;;1.90;;
53666;SDS011;39568;51.026;5.468;2022-07-19T00:06:10;5.13;;;2.17;;
53666;SDS011;39568;51.026;5.468;2022-07-19T00:08:41;2.17;;;1.55;;
53666;SDS011;39568;51.026;5.468;2022-07-19T00:11:11;4.15;;;2.08;;
53666;SDS011;39568;51.026;5.468;2022-07-19T00:13:39;2.25;;;1.98;;
53666;SDS011;39568;51.026;5.468;2022-07-19T00:16:05;7.53;;;1.80;;
53666;SDS011;39568;51.026;5.468;2022-07-19T00:18:32;8.60;;;2.35;;
53666;SDS011;39568;51.026;5.468;2022-07-19T00:20:58;14.05;;;2.35;;
53666;SDS011;39568;51.026;5.468;2022-07-19T00:23:25;11.10;;;2.60;;
53666;SDS011;39568;51.026;5.468;2022-07-19T00:25:52;2.10;;;2.00;;
53666;SDS011;39568;51.026;5.468;2022-07-19T00:28:25;5.43;;;2.42;;
53666;SDS011;39568;51.026;5.468;2022-07-19T00:30:52;8.15;;;3.03;;
53666;SDS011;39568;51.026;5.468;2022-07-19T00:33:18;3.45;;;2.88;;
53666;SDS011;39568;51.026;5.468;2022-07-19T00:35:45;3.20;;;2.95;;
53666;SDS011;39568;51.026;5.468;2022-07-19T00:38:13;11.55;;;3.33;;
53666;SDS011;39568;51.026;5.468;2022-07-19T00:40:40;9.73;;;3.38;;
53666;SDS011;39568;51.026;5.468;2022-07-19T00:43:08;4.10;;;2.92;;
53666;SDS011;39568;51.026;5.468;2022-07-19T00:45:36;2.67;;;2.47;;
53666;SDS011;39568;51.026;5.468;2022-07-19T00:48:04;8.02;;;2.70;;
53666;SDS011;39568;51.026;5.468;2022-07-19T00:50:34;5.65;;;2.65;;
53666;SDS011;39568;51.026;5.468;2022-07-19T00:53:02;10.90;;;2.80;;
53666;SDS011;39568;51.026;5.468;2022-07-19T00:55:31;3.88;;;2.50;;
53666;SDS011;39568;51.026;5.468;2022-07-19T00:58:01;3.42;;;3.08;;
53666;SDS011;39568;51.026;5.468;2022-07-19T01:00:29;3.30;;;2.75;;
53666;SDS011;39568;51.026;5.468;2022-07-19T01:03:00;11.18;;;2.88;;
53666;SDS011;39568;51.026;5.468;2022-07-19T01:05:27;9.48;;;3.15;;
53666;SDS011;39568;51.026;5.468;2022-07-19T01:07:54;3.30;;;2.85;;
53666;SDS011;39568;51.026;5.468;2022-07-19T01:10:21;12.05;;;3.10;;
53666;SDS011;39568;51.026;5.468;2022-07-19T01:12:47;6.72;;;3.17;;
53666;SDS011;39568;51.026;5.468;2022-07-19T01:15:15;13.07;;;3.15;;
53666;SDS011;39568;51.026;5.468;2022-07-19T01:17:43;5.88;;;2.67;;
53666;SDS011;39568;51.026;5.468;2022-07-19T01:20:11;4.25;;;3.03;;
53666;SDS011;39568;51.026;5.468;2022-07-19T01:22:40;4.95;;;3.25;;
53666;SDS011;39568;51.026;5.468;2022-07-19T01:25:09;3.97;;;2.58;;
53666;SDS011;39568;51.026;5.468;2022-07-19T01:27:37;5.40;;;3.33;;
53666;SDS011;39568;51.026;5.468;2022-07-19T01:30:09;2.83;;;2.60;;
53666;SDS011;39568;51.026;5.468;2022-07-19T01:32:37;11.77;;;2.88;;
53666;SDS011;39568;51.026;5.468;2022-07-19T01:35:04;8.55;;;2.38;;
53666;SDS011;39568;51.026;5.468;2022-07-19T01:37:32;5.78;;;2.75;;
53666;SDS011;39568;51.026;5.468;2022-07-19T01:40:00;11.43;;;3.17;;
53666;SDS011;39568;51.026;5.468;2022-07-19T01:42:28;5.15;;;2.35;;
53666;SDS011;39568;51.026;5.468;2022-07-19T01:44:54;9.23;;;2.85;;
53666;SDS011;39568;51.026;5.468;2022-07-19T01:47:21;11.52;;;3.13;;
53666;SDS011;39568;51.026;5.468;2022-07-19T01:49:48;7.85;;;3.42;;
53666;SDS011;39568;51.026;5.468;2022-07-19T01:52:15;3.65;;;2.15;;
53666;SDS011;39568;51.026;5.468;2022-07-19T01:54:42;8.43;;;3.50;;
53666;SDS011;39568;51.026;5.468;2022-07-19T01:57:10;2.50;;;2.30;;
53666;SDS011;39568;51.026;5.468;2022-07-19T01:59:37;8.45;;;2.50;;
53666;SDS011;39568;51.026;5.468;2022-07-19T02:02:07;6.47;;;3.10;;
53666;SDS011;39568;51.026;5.468;2022-07-19T02:04:33;5.68;;;2.55;;
53666;SDS011;39568;51.026;5.468;2022-07-19T02:07:00;2.70;;;2.50;;
53666;SDS011;39568;51.026;5.468;2022-07-19T02:09:27;5.30;;;2.78;;
53666;SDS011;39568;51.026;5.468;2022-07-19T02:11:54;12.35;;;3.33;;
53666;SDS011;39568;51.026;5.468;2022-07-19T02:14:21;10.45;;;3.40;;
53666;SDS011;39568;51.026;5.468;2022-07-19T02:16:48;4.90;;;2.55;;
53666;SDS011;39568;51.026;5.468;2022-07-19T02:19:15;16.33;;;3.67;;
53666;SDS011;39568;51.026;5.468;2022-07-19T02:21:41;6.75;;;3.10;;
53666;SDS011;39568;51.026;5.468;2022-07-19T02:24:08;3.53;;;3.03;;
53666;SDS011;39568;51.026;5.468;2022-07-19T02:26:48;3.22;;;2.75;;
53666;SDS011;39568;51.026;5.468;2022-07-19T02:29:14;8.80;;;2.22;;
53666;SDS011;39568;51.026;5.468;2022-07-19T02:31:44;10.55;;;2.90;;
53666;SDS011;39568;51.026;5.468;2022-07-19T02:34:14;6.43;;;3.35;;
53666;SDS011;39568;51.026;5.468;2022-07-19T02:36:44;11.30;;;2.65;;
53666;SDS011;39568;51.026;5.468;2022-07-19T02:39:15;4.15;;;2.70;;
53666;SDS011;39568;51.026;5.468;2022-07-19T02:41:42;11.52;;;2.95;;
53666;SDS011;39568;51.026;5.468;2022-07-19T02:44:08;3.88;;;2.65;;
53666;SDS011;39568;51.026;5.468;2022-07-19T02:46:35;6.68;;;2.58;;
53666;SDS011;39568;51.026;5.468;2022-07-19T02:49:03;3.75;;;2.97;;
53666;SDS011;39568;51.026;5.468;2022-07-19T02:51:31;5.07;;;2.58;;
53666;SDS011;39568;51.026;5.468;2022-07-19T02:53:57;10.30;;;2.75;;
53666;SDS011;39568;51.026;5.468;2022-07-19T02:56:24;3.67;;;3.30;;
53666;SDS011;39568;51.026;5.468;2022-07-19T02:58:51;3.47;;;3.08;;
53666;SDS011;39568;51.026;5.468;2022-07-19T03:01:17;19.63;;;3.60;;
53666;SDS011;39568;51.026;5.468;2022-07-19T03:03:49;7.88;;;2.90;;
53666;SDS011;39568;51.026;5.468;2022-07-19T03:06:18;6.53;;;3.13;;
53666;SDS011;39568;51.026;5.468;2022-07-19T03:11:14;11.00;;;3.42;;
53666;SDS011;39568;51.026;5.468;2022-07-19T03:13:43;7.70;;;3.13;;
53666;SDS011;39568;51.026;5.468;2022-07-19T03:16:10;5.13;;;3.70;;
53666;SDS011;39568;51.026;5.468;2022-07-19T03:18:36;6.50;;;2.88;;
53666;SDS011;39568;51.026;5.468;2022-07-19T03:21:03;5.53;;;3.05;;
53666;SDS011;39568;51.026;5.468;2022-07-19T03:23:33;3.15;;;2.95;;
53666;SDS011;39568;51.026;5.468;2022-07-19T03:26:01;2.67;;;2.50;;
53666;SDS011;39568;51.026;5.468;2022-07-19T03:28:31;7.25;;;3.03;;
53666;SDS011;39568;51.026;5.468;2022-07-19T03:30:58;5.63;;;2.65;;
53666;SDS011;39568;51.026;5.468;2022-07-19T03:33:25;5.93;;;2.63;;
53666;SDS011;39568;51.026;5.468;2022-07-19T03:35:52;29.30;;;4.53;;
53666;SDS011;39568;51.026;5.468;2022-07-19T03:38:19;10.68;;;2.95;;
53666;SDS011;39568;51.026;5.468;2022-07-19T03:40:48;3.83;;;2.78;;
53666;SDS011;39568;51.026;5.468;2022-07-19T03:43:19;3.83;;;2.80;;
53666;SDS011;39568;51.026;5.468;2022-07-19T03:45:50;8.50;;;3.28;;
53666;SDS011;39568;51.026;5.468;2022-07-19T03:48:17;5.95;;;2.90;;
53666;SDS011;39568;51.026;5.468;2022-07-19T03:50:50;4.10;;;2.88;;
53666;SDS011;39568;51.026;5.468;2022-07-19T03:53:17;15.20;;;3.78;;
53666;SDS011;39568;51.026;5.468;2022-07-19T03:55:44;3.80;;;2.78;;
53666;SDS011;39568;51.026;5.468;2022-07-19T03:58:13;3.40;;;3.10;;
53666;SDS011;39568;51.026;5.468;2022-07-19T04:00:40;5.32;;;3.30;;
53666;SDS011;39568;51.026;5.468;2022-07-19T04:03:06;13.48;;;4.13;;
53666;SDS011;39568;51.026;5.468;2022-07-19T04:05:34;4.03;;;3.45;;
53666;SDS011;39568;51.026;5.468;2022-07-19T04:08:00;4.85;;;3.00;;
53666;SDS011;39568;51.026;5.468;2022-07-19T04:10:27;6.63;;;3.00;;
53666;SDS011;39568;51.026;5.468;2022-07-19T04:12:54;3.63;;;3.33;;
53666;SDS011;39568;51.026;5.468;2022-07-19T04:15:22;29.45;;;4.15;;
53666;SDS011;39568;51.026;5.468;2022-07-19T04:17:49;9.93;;;2.90;;
53666;SDS011;39568;51.026;5.468;2022-07-19T04:20:15;5.00;;;3.30;;
53666;SDS011;39568;51.026;5.468;2022-07-19T04:22:42;3.58;;;3.25;;
53666;SDS011;39568;51.026;5.468;2022-07-19T04:25:09;5.13;;;2.60;;
53666;SDS011;39568;51.026;5.468;2022-07-19T04:27:39;2.65;;;2.45;;
53666;SDS011;39568;51.026;5.468;2022-07-19T04:30:12;4.68;;;3.22;;
53666;SDS011;39568;51.026;5.468;2022-07-19T04:32:40;5.97;;;2.58;;
53666;SDS011;39568;51.026;5.468;2022-07-19T04:35:09;9.02;;;3.03;;
53666;SDS011;39568;51.026;5.468;2022-07-19T04:37:42;18.70;;;3.53;;
53666;SDS011;39568;51.026;5.468;2022-07-19T04:40:09;6.78;;;3.50;;
53666;SDS011;39568;51.026;5.468;2022-07-19T04:42:36;3.55;;;2.92;;
53666;SDS011;39568;51.026;5.468;2022-07-19T04:45:03;7.60;;;3.13;;
53666;SDS011;39568;51.026;5.468;2022-07-19T04:47:35;3.00;;;2.58;;
53666;SDS011;39568;51.026;5.468;2022-07-19T04:50:06;5.22;;;3.30;;
53666;SDS011;39568;51.026;5.468;2022-07-19T04:52:33;6.05;;;3.38;;
53666;SDS011;39568;51.026;5.468;2022-07-19T04:55:00;3.97;;;2.70;;
53666;SDS011;39568;51.026;5.468;2022-07-19T04:57:27;10.07;;;3.17;;
53666;SDS011;39568;51.026;5.468;2022-07-19T04:59:54;18.40;;;3.42;;
53666;SDS011;39568;51.026;5.468;2022-07-19T05:02:21;9.68;;;3.03;;
53666;SDS011;39568;51.026;5.468;2022-07-19T05:04:48;23.23;;;3.90;;
53666;SDS011;39568;51.026;5.468;2022-07-19T05:07:19;8.68;;;3.55;;
53666;SDS011;39568;51.026;5.468;2022-07-19T05:09:46;4.55;;;3.15;;
53666;SDS011;39568;51.026;5.468;2022-07-19T05:12:15;10.45;;;3.38;;
53666;SDS011;39568;51.026;5.468;2022-07-19T05:14:42;9.23;;;3.25;;
53666;SDS011;39568;51.026;5.468;2022-07-19T05:17:09;19.35;;;3.20;;
53666;SDS011;39568;51.026;5.468;2022-07-19T05:19:36;25.85;;;4.25;;
53666;SDS011;39568;51.026;5.468;2022-07-19T05:22:03;7.20;;;3.38;;
53666;SDS011;39568;51.026;5.468;2022-07-19T05:24:31;7.40;;;3.55;;
53666;SDS011;39568;51.026;5.468;2022-07-19T05:26:57;22.05;;;2.88;;
53666;SDS011;39568;51.026;5.468;2022-07-19T05:29:24;9.48;;;3.80;;
53666;SDS011;39568;51.026;5.468;2022-07-19T05:31:51;25.20;;;4.07;;
53666;SDS011;39568;51.026;5.468;2022-07-19T05:34:18;21.02;;;3.08;;
53666;SDS011;39568;51.026;5.468;2022-07-19T05:36:45;4.22;;;2.70;;
53666;SDS011;39568;51.026;5.468;2022-07-19T05:39:12;10.88;;;2.65;;
53666;SDS011;39568;51.026;5.468;2022-07-19T05:41:41;3.05;;;2.75;;
53666;SDS011;39568;51.026;5.468;2022-07-19T05:44:08;6.18;;;3.00;;
53666;SDS011;39568;51.026;5.468;2022-07-19T05:46:35;8.20;;;3.30;;
53666;SDS011;39568;51.026;5.468;2022-07-19T05:49:06;13.88;;;2.65;;
53666;SDS011;39568;51.026;5.468;2022-07-19T05:51:32;11.27;;;3.17;;
53666;SDS011;39568;51.026;5.468;2022-07-19T05:54:03;12.00;;;3.28;;
53666;SDS011;39568;51.026;5.468;2022-07-19T05:56:32;12.32;;;2.80;;
53666;SDS011;39568;51.026;5.468;2022-07-19T05:59:04;7.72;;;2.75;;
53666;SDS011;39568;51.026;5.468;2022-07-19T06:01:31;9.93;;;3.33;;
53666;SDS011;39568;51.026;5.468;2022-07-19T06:03:58;4.80;;;2.20;;
53666;SDS011;39568;51.026;5.468;2022-07-19T06:06:26;10.65;;;3.03;;
53666;SDS011;39568;51.026;5.468;2022-07-19T06:08:58;14.85;;;2.88;;
53666;SDS011;39568;51.026;5.468;2022-07-19T06:11:25;6.00;;;2.63;;
53666;SDS011;39568;51.026;5.468;2022-07-19T06:13:52;13.15;;;3.88;;
53666;SDS011;39568;51.026;5.468;2022-07-19T06:16:21;7.05;;;3.35;;
53666;SDS011;39568;51.026;5.468;2022-07-19T06:18:48;9.45;;;2.53;;
53666;SDS011;39568;51.026;5.468;2022-07-19T06:21:19;7.45;;;2.92;;
53666;SDS011;39568;51.026;5.468;2022-07-19T06:23:47;16.88;;;3.22;;
53666;SDS011;39568;51.026;5.468;2022-07-19T06:26:16;13.27;;;3.10;;
53666;SDS011;39568;51.026;5.468;2022-07-19T06:28:44;5.30;;;2.83;;
53666;SDS011;39568;51.026;5.468;2022-07-19T06:31:11;6.30;;;2.35;;
53666;SDS011;39568;51.026;5.468;2022-07-19T06:33:40;18.73;;;2.72;;
53666;SDS011;39568;51.026;5.468;2022-07-19T06:36:07;8.77;;;2.45;;
53666;SDS011;39568;51.026;5.468;2022-07-19T06:38:34;5.78;;;2.83;;
53666;SDS011;39568;51.026;5.468;2022-07-19T06:41:01;9.85;;;2.22;;
53666;SDS011;39568;51.026;5.468;2022-07-19T06:43:28;17.73;;;3.00;;
53666;SDS011;39568;51.026;5.468;2022-07-19T06:45:54;15.88;;;2.80;;
53666;SDS011;39568;51.026;5.468;2022-07-19T06:48:21;6.35;;;2.42;;
53666;SDS011;39568;51.026;5.468;2022-07-19T06:50:52;13.50;;;3.33;;
53666;SDS011;39568;51.026;5.468;2022-07-19T06:53:19;8.52;;;2.67;;
53666;SDS011;39568;51.026;5.468;2022-07-19T06:55:47;8.50;;;3.05;;
53666;SDS011;39568;51.026;5.468;2022-07-19T06:58:13;12.55;;;2.95;;
53666;SDS011;39568;51.026;5.468;2022-07-19T07:00:40;8.70;;;2.90;;
53666;SDS011;39568;51.026;5.468;2022-07-19T07:03:08;7.43;;;2.90;;
53666;SDS011;39568;51.026;5.468;2022-07-19T07:05:35;8.35;;;2.60;;
53666;SDS011;39568;51.026;5.468;2022-07-19T07:08:03;14.82;;;4.07;;
53666;SDS011;39568;51.026;5.468;2022-07-19T07:10:30;7.85;;;2.78;;
53666;SDS011;39568;51.026;5.468;2022-07-19T07:12:57;12.40;;;2.53;;
53666;SDS011;39568;51.026;5.468;2022-07-19T07:15:23;7.35;;;2.53;;
53666;SDS011;39568;51.026;5.468;2022-07-19T07:17:50;13.43;;;2.80;;
53666;SDS011;39568;51.026;5.468;2022-07-19T07:20:17;9.88;;;2.38;;
53666;SDS011;39568;51.026;5.468;2022-07-19T07:22:44;12.57;;;2.85;;
53666;SDS011;39568;51.026;5.468;2022-07-19T07:25:13;17.80;;;3.20;;
53666;SDS011;39568;51.026;5.468;2022-07-19T07:27:44;8.65;;;2.30;;
53666;SDS011;39568;51.026;5.468;2022-07-19T07:30:11;6.93;;;2.38;;
53666;SDS011;39568;51.026;5.468;2022-07-19T07:32:39;12.32;;;2.60;;
53666;SDS011;39568;51.026;5.468;2022-07-19T07:35:06;12.55;;;2.20;;
53666;SDS011;39568;51.026;5.468;2022-07-19T07:37:33;5.60;;;2.10;;
53666;SDS011;39568;51.026;5.468;2022-07-19T07:40:00;5.80;;;2.08;;
53666;SDS011;39568;51.026;5.468;2022-07-19T07:42:28;4.57;;;2.00;;
53666;SDS011;39568;51.026;5.468;2022-07-19T07:44:57;6.63;;;1.75;;
53666;SDS011;39568;51.026;5.468;2022-07-19T07:47:24;3.60;;;2.58;;
53666;SDS011;39568;51.026;5.468;2022-07-19T07:49:51;4.65;;;2.20;;
53666;SDS011;39568;51.026;5.468;2022-07-19T07:52:18;11.25;;;2.15;;
53666;SDS011;39568;51.026;5.468;2022-07-19T07:54:46;9.45;;;2.03;;
53666;SDS011;39568;51.026;5.468;2022-07-19T07:57:14;10.30;;;2.10;;
53666;SDS011;39568;51.026;5.468;2022-07-19T07:59:41;9.70;;;2.10;;
53666;SDS011;39568;51.026;5.468;2022-07-19T08:02:13;3.92;;;1.52;;
53666;SDS011;39568;51.026;5.468;2022-07-19T08:04:40;5.38;;;2.63;;
53666;SDS011;39568;51.026;5.468;2022-07-19T08:07:06;4.47;;;1.80;;
53666;SDS011;39568;51.026;5.468;2022-07-19T08:09:33;19.23;;;3.58;;
53666;SDS011;39568;51.026;5.468;2022-07-19T08:11:59;7.85;;;2.08;;
53666;SDS011;39568;51.026;5.468;2022-07-19T08:14:31;5.70;;;2.17;;
53666;SDS011;39568;51.026;5.468;2022-07-19T08:16:59;4.13;;;1.80;;
53666;SDS011;39568;51.026;5.468;2022-07-19T08:19:26;5.30;;;2.00;;
53666;SDS011;39568;51.026;5.468;2022-07-19T08:21:52;6.38;;;1.95;;
53666;SDS011;39568;51.026;5.468;2022-07-19T08:24:19;12.73;;;2.13;;
53666;SDS011;39568;51.026;5.468;2022-07-19T08:26:48;6.57;;;2.38;;
53666;SDS011;39568;51.026;5.468;2022-07-19T08:29:14;3.35;;;1.92;;
53666;SDS011;39568;51.026;5.468;2022-07-19T08:31:41;4.53;;;2.45;;
53666;SDS011;39568;51.026;5.468;2022-07-19T08:34:09;10.85;;;2.25;;
53666;SDS011;39568;51.026;5.468;2022-07-19T08:36:35;1.85;;;1.63;;
53666;SDS011;39568;51.026;5.468;2022-07-19T08:39:02;11.65;;;2.20;;
53666;SDS011;39568;51.026;5.468;2022-07-19T08:41:29;3.70;;;2.25;;
53666;SDS011;39568;51.026;5.468;2022-07-19T08:43:56;9.35;;;1.88;;
53666;SDS011;39568;51.026;5.468;2022-07-19T08:46:27;7.95;;;1.67;;
53666;SDS011;39568;51.026;5.468;2022-07-19T08:48:54;8.77;;;1.80;;
53666;SDS011;39568;51.026;5.468;2022-07-19T08:51:23;4.40;;;1.23;;
53666;SDS011;39568;51.026;5.468;2022-07-19T08:53:51;3.17;;;1.80;;
53666;SDS011;39568;51.026;5.468;2022-07-19T08:56:18;5.45;;;1.45;;
53666;SDS011;39568;51.026;5.468;2022-07-19T08:59:03;6.70;;;2.50;;
53666;SDS011;39568;51.026;5.468;2022-07-19T09:01:30;10.10;;;2.40;;
53666;SDS011;39568;51.026;5.468;2022-07-19T09:04:07;12.07;;;1.90;;
53666;SDS011;39568;51.026;5.468;2022-07-19T09:06:41;2.45;;;1.88;;
53666;SDS011;39568;51.026;5.468;2022-07-19T09:09:10;6.30;;;1.70;;
53666;SDS011;39568;51.026;5.468;2022-07-19T09:11:39;3.10;;;1.58;;
53666;SDS011;39568;51.026;5.468;2022-07-19T09:14:14;7.20;;;1.70;;
53666;SDS011;39568;51.026;5.468;2022-07-19T09:16:57;2.70;;;2.00;;
53666;SDS011;39568;51.026;5.468;2022-07-19T09:19:29;3.45;;;1.70;;
53666;SDS011;39568;51.026;5.468;2022-07-19T09:22:01;4.20;;;1.40;;
53666;SDS011;39568;51.026;5.468;2022-07-19T09:24:30;1.77;;;1.33;;
53666;SDS011;39568;51.026;5.468;2022-07-19T09:26:59;4.72;;;2.00;;
53666;SDS011;39568;51.026;5.468;2022-07-19T09:29:27;4.72;;;1.40;;
53666;SDS011;39568;51.026;5.468;2022-07-19T09:32:02;8.18;;;1.30;;
53666;SDS011;39568;51.026;5.468;2022-07-19T09:34:32;7.72;;;2.13;;
53666;SDS011;39568;51.026;5.468;2022-07-19T09:37:13;6.93;;;2.05;;
53666;SDS011;39568;51.026;5.468;2022-07-19T09:39:43;2.97;;;1.77;;
53666;SDS011;39568;51.026;5.468;2022-07-19T09:42:14;2.00;;;1.40;;
53666;SDS011;39568;51.026;5.468;2022-07-19T09:44:42;1.60;;;1.50;;
53666;SDS011;39568;51.026;5.468;2022-07-19T09:47:09;4.78;;;1.73;;
53666;SDS011;39568;51.026;5.468;2022-07-19T09:49:36;6.57;;;1.58;;
53666;SDS011;39568;51.026;5.468;2022-07-19T09:52:03;2.50;;;1.40;;
53666;SDS011;39568;51.026;5.468;2022-07-19T09:54:31;1.67;;;1.40;;
53666;SDS011;39568;51.026;5.468;2022-07-19T09:56:58;7.60;;;1.65;;
53666;SDS011;39568;51.026;5.468;2022-07-19T09:59:27;11.40;;;1.73;;
53666;SDS011;39568;51.026;5.468;2022-07-19T10:01:56;8.07;;;1.30;;
53666;SDS011;39568;51.026;5.468;2022-07-19T10:04:23;21.00;;;2.25;;
53666;SDS011;39568;51.026;5.468;2022-07-19T10:06:52;5.45;;;1.88;;
53666;SDS011;39568;51.026;5.468;2022-07-19T10:09:20;3.58;;;1.77;;
53666;SDS011;39568;51.026;5.468;2022-07-19T10:11:49;12.18;;;1.20;;
53666;SDS011;39568;51.026;5.468;2022-07-19T10:14:19;8.55;;;1.52;;
53666;SDS011;39568;51.026;5.468;2022-07-19T10:19:26;2.53;;;1.10;;
53666;SDS011;39568;51.026;5.468;2022-07-19T10:21:59;11.70;;;1.70;;
53666;SDS011;39568;51.026;5.468;2022-07-19T10:24:42;8.98;;;1.52;;
53666;SDS011;39568;51.026;5.468;2022-07-19T10:27:14;3.33;;;1.17;;
53666;SDS011;39568;51.026;5.468;2022-07-19T10:29:42;5.20;;;1.45;;
53666;SDS011;39568;51.026;5.468;2022-07-19T10:32:14;6.90;;;1.60;;
53666;SDS011;39568;51.026;5.468;2022-07-19T10:34:43;4.22;;;1.58;;
53666;SDS011;39568;51.026;5.468;2022-07-19T10:37:12;5.53;;;2.13;;
53666;SDS011;39568;51.026;5.468;2022-07-19T10:39:39;4.05;;;1.42;;
53666;SDS011;39568;51.026;5.468;2022-07-19T10:42:12;7.38;;;1.58;;
53666;SDS011;39568;51.026;5.468;2022-07-19T10:50:42;3.83;;;1.20;;
53666;SDS011;39568;51.026;5.468;2022-07-19T10:56:35;4.93;;;1.52;;
53666;SDS011;39568;51.026;5.468;2022-07-19T10:59:30;3.28;;;1.00;;
53666;SDS011;39568;51.026;5.468;2022-07-19T11:02:03;9.25;;;1.70;;
53666;SDS011;39568;51.026;5.468;2022-07-19T11:04:30;1.92;;;1.27;;
53666;SDS011;39568;51.026;5.468;2022-07-19T11:07:10;11.18;;;2.08;;
53666;SDS011;39568;51.026;5.468;2022-07-19T11:09:39;4.30;;;1.48;;
53666;SDS011;39568;51.026;5.468;2022-07-19T11:12:18;4.57;;;1.27;;
53666;SDS011;39568;51.026;5.468;2022-07-19T11:15:14;3.05;;;1.42;;
53666;SDS011;39568;51.026;5.468;2022-07-19T11:17:51;7.93;;;1.48;;
53666;SDS011;39568;51.026;5.468;2022-07-19T11:20:22;7.97;;;1.30;;
53666;SDS011;39568;51.026;5.468;2022-07-19T11:22:56;1.80;;;1.17;;
53666;SDS011;39568;51.026;5.468;2022-07-19T11:25:27;6.97;;;1.33;;
53666;SDS011;39568;51.026;5.468;2022-07-19T11:28:01;1.67;;;1.02;;
53666;SDS011;39568;51.026;5.468;2022-07-19T11:30:30;5.50;;;1.45;;
53666;SDS011;39568;51.026;5.468;2022-07-19T11:33:02;4.00;;;2.47;;
53666;SDS011;39568;51.026;5.468;2022-07-19T11:35:30;7.80;;;1.55;;
53666;SDS011;39568;51.026;5.468;2022-07-19T11:37:58;2.70;;;1.52;;
53666;SDS011;39568;51.026;5.468;2022-07-19T11:40:31;13.65;;;1.80;;
53666;SDS011;39568;51.026;5.468;2022-07-19T11:42:59;7.88;;;1.75;;
53666;SDS011;39568;51.026;5.468;2022-07-19T11:45:46;3.97;;;1.17;;
53666;SDS011;39568;51.026;5.468;2022-07-19T11:48:27;5.22;;;1.60;;
53666;SDS011;39568;51.026;5.468;2022-07-19T11:50:59;1.98;;;1.20;;
53666;SDS011;39568;51.026;5.468;2022-07-19T11:53:32;7.97;;;1.42;;
53666;SDS011;39568;51.026;5.468;2022-07-19T11:55:59;3.22;;;1.58;;
53666;SDS011;39568;51.026;5.468;2022-07-19T11:58:30;2.42;;;1.27;;
53666;SDS011;39568;51.026;5.468;2022-07-19T12:01:02;5.35;;;1.25;;
53666;SDS011;39568;51.026;5.468;2022-07-19T12:03:31;4.50;;;1.70;;
53666;SDS011;39568;51.026;5.468;2022-07-19T12:05:59;3.28;;;1.60;;
53666;SDS011;39568;51.026;5.468;2022-07-19T12:08:34;2.92;;;1.52;;
53666;SDS011;39568;51.026;5.468;2022-07-19T12:11:17;7.13;;;1.50;;
53666;SDS011;39568;51.026;5.468;2022-07-19T12:13:50;6.40;;;1.30;;
53666;SDS011;39568;51.026;5.468;2022-07-19T12:16:21;5.32;;;1.35;;
53666;SDS011;39568;51.026;5.468;2022-07-19T12:18:49;3.92;;;1.23;;
53666;SDS011;39568;51.026;5.468;2022-07-19T12:21:25;5.18;;;1.00;;
53666;SDS011;39568;51.026;5.468;2022-07-19T12:24:16;5.32;;;1.20;;
53666;SDS011;39568;51.026;5.468;2022-07-19T12:27:02;6.85;;;1.30;;
53666;SDS011;39568;51.026;5.468;2022-07-19T12:29:32;3.50;;;1.52;;
53666;SDS011;39568;51.026;5.468;2022-07-19T12:32:04;4.68;;;1.30;;
53666;SDS011;39568;51.026;5.468;2022-07-19T12:34:45;6.20;;;1.60;;
53666;SDS011;39568;51.026;5.468;2022-07-19T12:37:22;4.13;;;1.50;;
53666;SDS011;39568;51.026;5.468;2022-07-19T12:40:04;1.95;;;1.17;;
53666;SDS011;39568;51.026;5.468;2022-07-19T12:42:37;2.25;;;1.10;;
53666;SDS011;39568;51.026;5.468;2022-07-19T12:45:06;3.35;;;1.02;;
53666;SDS011;39568;51.026;5.468;2022-07-19T12:47:35;6.60;;;1.80;;
53666;SDS011;39568;51.026;5.468;2022-07-19T12:50:08;1.27;;;1.17;;
53666;SDS011;39568;51.026;5.468;2022-07-19T12:52:43;6.93;;;1.80;;
53666;SDS011;39568;51.026;5.468;2022-07-19T12:55:12;3.55;;;1.10;;
53666;SDS011;39568;51.026;5.468;2022-07-19T12:57:49;1.67;;;1.30;;
53666;SDS011;39568;51.026;5.468;2022-07-19T13:00:18;3.30;;;1.80;;
53666;SDS011;39568;51.026;5.468;2022-07-19T13:02:48;1.52;;;1.42;;
53666;SDS011;39568;51.026;5.468;2022-07-19T13:05:16;3.50;;;1.42;;
53666;SDS011;39568;51.026;5.468;2022-07-19T13:07:45;8.88;;;1.17;;
53666;SDS011;39568;51.026;5.468;2022-07-19T13:10:13;2.10;;;1.08;;
53666;SDS011;39568;51.026;5.468;2022-07-19T13:12:40;9.83;;;1.33;;
53666;SDS011;39568;51.026;5.468;2022-07-19T13:15:08;8.77;;;1.02;;
53666;SDS011;39568;51.026;5.468;2022-07-19T13:17:36;4.45;;;1.33;;
53666;SDS011;39568;51.026;5.468;2022-07-19T13:20:08;6.97;;;1.80;;
53666;SDS011;39568;51.026;5.468;2022-07-19T13:22:40;5.65;;;1.98;;
53666;SDS011;39568;51.026;5.468;2022-07-19T13:25:08;6.18;;;1.33;;
53666;SDS011;39568;51.026;5.468;2022-07-19T13:27:36;1.70;;;1.33;;
53666;SDS011;39568;51.026;5.468;2022-07-19T13:30:03;3.97;;;1.40;;
53666;SDS011;39568;51.026;5.468;2022-07-19T13:32:31;3.38;;;1.27;;
53666;SDS011;39568;51.026;5.468;2022-07-19T13:34:57;1.42;;;1.33;;
53666;SDS011;39568;51.026;5.468;2022-07-19T13:37:28;9.05;;;1.55;;
53666;SDS011;39568;51.026;5.468;2022-07-19T13:39:55;3.33;;;1.40;;
53666;SDS011;39568;51.026;5.468;2022-07-19T13:42:32;2.15;;;1.02;;
53666;SDS011;39568;51.026;5.468;2022-07-19T13:44:58;5.25;;;1.42;;
53666;SDS011;39568;51.026;5.468;2022-07-19T13:47:26;7.43;;;1.58;;
53666;SDS011;39568;51.026;5.468;2022-07-19T13:49:54;7.90;;;1.30;;
53666;SDS011;39568;51.026;5.468;2022-07-19T13:52:23;6.22;;;1.40;;
53666;SDS011;39568;51.026;5.468;2022-07-19T13:54:55;4.32;;;1.33;;
53666;SDS011;39568;51.026;5.468;2022-07-19T13:59:49;3.00;;;1.33;;
53666;SDS011;39568;51.026;5.468;2022-07-19T14:02:16;4.30;;;1.70;;
53666;SDS011;39568;51.026;5.468;2022-07-19T14:04:43;6.18;;;1.27;;
53666;SDS011;39568;51.026;5.468;2022-07-19T14:07:10;2.58;;;1.20;;
53666;SDS011;39568;51.026;5.468;2022-07-19T14:09:36;2.28;;;1.60;;
53666;SDS011;39568;51.026;5.468;2022-07-19T14:12:05;2.85;;;1.52;;
53666;SDS011;39568;51.026;5.468;2022-07-19T14:14:33;4.43;;;1.48;;
53666;SDS011;39568;51.026;5.468;2022-07-19T14:17:00;7.43;;;1.38;;
53666;SDS011;39568;51.026;5.468;2022-07-19T14:19:28;3.58;;;1.08;;
53666;SDS011;39568;51.026;5.468;2022-07-19T14:22:00;4.65;;;1.25;;
53666;SDS011;39568;51.026;5.468;2022-07-19T14:24:27;4.28;;;1.33;;
53666;SDS011;39568;51.026;5.468;2022-07-19T14:26:53;4.55;;;1.85;;
53666;SDS011;39568;51.026;5.468;2022-07-19T14:29:24;2.73;;;1.80;;
53666;SDS011;39568;51.026;5.468;2022-07-19T14:31:51;5.07;;;1.08;;
53666;SDS011;39568;51.026;5.468;2022-07-19T14:34:18;9.27;;;1.50;;
53666;SDS011;39568;51.026;5.468;2022-07-19T14:36:45;4.05;;;1.30;;
53666;SDS011;39568;51.026;5.468;2022-07-19T14:39:13;4.22;;;1.33;;
53666;SDS011;39568;51.026;5.468;2022-07-19T14:41:43;1.48;;;1.13;;
53666;SDS011;39568;51.026;5.468;2022-07-19T14:44:10;9.65;;;1.30;;
53666;SDS011;39568;51.026;5.468;2022-07-19T14:46:40;4.20;;;1.27;;
53666;SDS011;39568;51.026;5.468;2022-07-19T14:49:13;7.57;;;1.38;;
53666;SDS011;39568;51.026;5.468;2022-07-19T14:51:41;8.13;;;1.30;;
53666;SDS011;39568;51.026;5.468;2022-07-19T14:56:34;2.63;;;1.65;;
53666;SDS011;39568;51.026;5.468;2022-07-19T14:59:01;6.00;;;2.15;;
53666;SDS011;39568;51.026;5.468;2022-07-19T15:01:35;3.20;;;1.00;;
53666;SDS011;39568;51.026;5.468;2022-07-19T15:04:04;8.73;;;1.40;;
53666;SDS011;39568;51.026;5.468;2022-07-19T15:06:33;5.38;;;1.45;;
53666;SDS011;39568;51.026;5.468;2022-07-19T15:09:02;1.70;;;1.33;;
53666;SDS011;39568;51.026;5.468;2022-07-19T15:11:29;1.27;;;1.20;;
53666;SDS011;39568;51.026;5.468;2022-07-19T15:13:59;8.40;;;1.65;;
53666;SDS011;39568;51.026;5.468;2022-07-19T15:16:27;3.85;;;1.48;;